Time;durP1;ratioP1;P1;durP2;ratioP2;P2;SDS_P1;SDS_P2;PMS_P1;PMS_P2;Temp;Humidity;BMP_temperature;BMP_pressure;BME280_temperature;BME280_humidity;BME280_pressure;Samples;Min_cycle;Max_cycle;Signal;HPM_P1;HPM_P2
2022/11/21 00:00:53;;;;;;;2.05;1.10;;;16.50;1.00;;;;;;4804595;29;20143;-39
2022/11/21 00:03:20;;;;;;;2.15;1.25;;;16.50;1.00;;;;;;4804587;29;20047;-40
2022/11/21 00:05:48;;;;;;;3.58;1.30;;;16.50;1.00;;;;;;4804346;29;20104;-39
2022/11/21 00:08:17;;;;;;;2.78;1.38;;;16.50;1.00;;;;;;4804459;29;20053;-38
2022/11/21 00:10:45;;;;;;;2.72;1.60;;;16.50;1.00;;;;;;4804404;29;20077;-38
2022/11/21 00:13:14;;;;;;;2.78;1.42;;;16.40;1.00;;;;;;4804184;29;20039;-38
2022/11/21 00:15:40;;;;;;;2.35;1.50;;;16.40;1.00;;;;;;4804121;29;20057;-39
2022/11/21 00:18:08;;;;;;;2.70;1.30;;;16.40;1.00;;;;;;4804273;29;20054;-38
2022/11/21 00:20:36;;;;;;;1.83;1.30;;;16.30;1.00;;;;;;4804373;29;20529;-38
2022/11/21 00:23:02;;;;;;;4.55;1.95;;;16.30;1.00;;;;;;4804094;29;20086;-38
2022/11/21 00:25:29;;;;;;;2.60;1.67;;;16.30;1.00;;;;;;4804105;29;20054;-39
2022/11/21 00:27:56;;;;;;;2.13;1.30;;;16.30;1.00;;;;;;4804307;29;20054;-39
2022/11/21 00:30:23;;;;;;;2.38;1.67;;;16.30;1.00;;;;;;4804522;29;20047;-39
2022/11/21 00:32:50;;;;;;;2.83;1.95;;;16.20;1.00;;;;;;4804061;29;20047;-38
2022/11/21 00:35:17;;;;;;;2.40;1.60;;;16.20;1.00;;;;;;4804754;29;20070;-38
2022/11/21 00:37:43;;;;;;;2.92;1.52;;;16.20;1.00;;;;;;4791322;29;20578;-39
2022/11/21 00:40:11;;;;;;;1.85;1.40;;;16.20;1.00;;;;;;4807363;29;20141;-39
2022/11/21 00:42:37;;;;;;;2.45;1.30;;;16.10;1.00;;;;;;4790994;29;20049;-39
2022/11/21 00:45:05;;;;;;;2.67;1.77;;;16.10;1.00;;;;;;4807363;29;20104;-39
2022/11/21 00:47:32;;;;;;;2.40;1.70;;;16.10;1.00;;;;;;4807236;29;20043;-39
2022/11/21 00:49:58;;;;;;;3.60;1.95;;;16.10;1.00;;;;;;4807223;29;20114;-39
2022/11/21 00:52:25;;;;;;;2.92;1.58;;;16.10;1.00;;;;;;4806958;29;20125;-39
2022/11/21 00:54:52;;;;;;;2.55;1.60;;;16.00;1.00;;;;;;4806696;29;20125;-39
2022/11/21 00:57:18;;;;;;;1.85;1.45;;;16.00;1.00;;;;;;4807144;29;20055;-39
2022/11/21 00:59:45;;;;;;;3.13;1.75;;;16.00;1.00;;;;;;4807341;29;20478;-39
2022/11/21 01:02:12;;;;;;;2.95;1.80;;;16.00;1.00;;;;;;4805377;29;20055;-39
2022/11/21 01:04:39;;;;;;;2.80;1.52;;;16.00;1.00;;;;;;4806997;29;20047;-39
2022/11/21 01:07:06;;;;;;;2.40;1.52;;;15.90;1.00;;;;;;4807059;29;20481;-39
2022/11/21 01:09:33;;;;;;;2.88;2.00;;;15.90;1.00;;;;;;4806843;29;20047;-39
2022/11/21 01:11:59;;;;;;;3.00;1.83;;;15.90;1.00;;;;;;4806817;29;20134;-40
2022/11/21 01:14:26;;;;;;;3.30;2.10;;;15.90;1.00;;;;;;4806639;29;20082;-39
2022/11/21 01:16:53;;;;;;;2.72;1.88;;;15.80;1.00;;;;;;4806790;29;20065;-39
2022/11/21 01:19:20;;;;;;;3.63;1.80;;;15.80;1.00;;;;;;4806911;29;20050;-39
2022/11/21 01:21:47;;;;;;;3.25;1.70;;;15.80;1.00;;;;;;4790557;29;20054;-40
2022/11/21 01:24:13;;;;;;;3.15;2.15;;;15.80;1.00;;;;;;4817561;24;20063;-39
2022/11/21 01:26:41;;;;;;;2.35;1.60;;;15.80;1.00;;;;;;4818816;29;20414;-37
2022/11/21 01:29:08;;;;;;;3.15;2.15;;;15.70;1.00;;;;;;4824083;29;20089;-37
2022/11/21 01:31:35;;;;;;;2.20;1.35;;;15.70;1.00;;;;;;4824650;29;20049;-37
2022/11/21 01:34:01;;;;;;;2.90;1.80;;;15.70;1.00;;;;;;4824362;29;20046;-38
2022/11/21 01:36:31;;;;;;;2.85;1.42;;;15.70;1.00;;;;;;4824626;29;20054;-38
2022/11/21 01:39:00;;;;;;;2.47;1.83;;;15.70;1.00;;;;;;4824781;29;20066;-38
2022/11/21 01:41:38;;;;;;;2.83;1.63;;;15.70;1.00;;;;;;4824552;29;20502;-38
2022/11/21 01:44:49;;;;;;;2.78;1.45;;;15.60;1.00;;;;;;4824324;29;20447;-38
2022/11/21 01:47:16;;;;;;;2.33;1.83;;;15.60;1.00;;;;;;4810284;29;20050;-38
2022/11/21 01:49:44;;;;;;;3.50;2.00;;;15.60;1.00;;;;;;4824624;29;20050;-38
2022/11/21 01:52:31;;;;;;;2.55;1.90;;;15.50;1.00;;;;;;4824157;29;20054;-38
2022/11/21 01:55:07;;;;;;;2.53;1.77;;;15.50;1.00;;;;;;4824438;29;20054;-38
2022/11/21 01:57:47;;;;;;;5.00;2.15;;;15.50;1.00;;;;;;4824268;29;20050;-38
2022/11/21 02:00:26;;;;;;;2.22;1.70;;;15.50;1.00;;;;;;4824423;29;20056;-38
2022/11/21 02:02:56;;;;;;;2.45;1.60;;;15.50;1.00;;;;;;4824226;29;20042;-39
2022/11/21 02:05:27;;;;;;;3.08;2.03;;;15.40;1.00;;;;;;4824261;29;20054;-38
2022/11/21 02:07:57;;;;;;;2.92;1.65;;;15.40;1.00;;;;;;4824081;29;20491;-38
2022/11/21 02:10:25;;;;;;;2.50;1.88;;;15.40;1.00;;;;;;4824234;29;20056;-38
2022/11/21 02:12:54;;;;;;;3.25;2.25;;;15.40;1.00;;;;;;4823986;29;20118;-38
2022/11/21 02:15:24;;;;;;;2.63;1.83;;;15.40;1.00;;;;;;4824109;29;20078;-38
2022/11/21 02:17:51;;;;;;;2.95;1.90;;;15.40;1.00;;;;;;4824085;29;20049;-38
2022/11/21 02:20:24;;;;;;;2.83;1.90;;;15.40;1.00;;;;;;4823979;29;20130;-38
2022/11/21 02:23:11;;;;;;;2.53;1.77;;;15.30;1.00;;;;;;4823738;29;20054;-38
2022/11/21 02:25:41;;;;;;;2.97;2.10;;;15.30;1.00;;;;;;4823893;29;20115;-38
2022/11/21 02:28:15;;;;;;;2.38;1.70;;;15.30;1.00;;;;;;4823819;29;20514;-38
2022/11/21 02:30:42;;;;;;;3.00;1.65;;;15.30;1.00;;;;;;4823833;29;20091;-39
2022/11/21 02:33:11;;;;;;;2.63;1.65;;;15.30;1.00;;;;;;4823570;29;20066;-38
2022/11/21 02:35:38;;;;;;;2.92;2.05;;;15.30;1.00;;;;;;4823772;29;20077;-38
2022/11/21 02:38:22;;;;;;;2.85;2.03;;;15.20;1.00;;;;;;4823797;29;20050;-38
2022/11/21 02:41:14;;;;;;;2.80;1.52;;;15.20;1.00;;;;;;4823818;29;20050;-38
2022/11/21 02:43:49;;;;;;;2.17;1.60;;;15.20;1.00;;;;;;4833130;29;20049;-38
2022/11/21 02:46:16;;;;;;;2.67;1.83;;;15.20;1.00;;;;;;4823618;29;20050;-38
2022/11/21 02:48:43;;;;;;;2.75;1.90;;;15.20;1.00;;;;;;4823766;29;20133;-38
2022/11/21 02:51:10;;;;;;;4.20;2.22;;;15.10;1.00;;;;;;4823653;29;20054;-38
2022/11/21 02:53:37;;;;;;;2.47;1.92;;;15.10;1.00;;;;;;4823216;29;20488;-38
2022/11/21 02:56:03;;;;;;;3.58;2.03;;;15.10;1.00;;;;;;4823481;29;20054;-38
2022/11/21 02:58:30;;;;;;;2.50;1.80;;;15.10;1.00;;;;;;4823182;29;20046;-38
2022/11/21 03:00:57;;;;;;;3.13;2.00;;;15.10;1.00;;;;;;4823409;29;20103;-38
2022/11/21 03:03:24;;;;;;;2.30;1.67;;;15.10;1.00;;;;;;4823141;29;20495;-38
2022/11/21 03:05:51;;;;;;;2.67;1.80;;;15.10;1.00;;;;;;4823361;29;20057;-38
2022/11/21 03:08:17;;;;;;;2.55;1.98;;;15.00;1.00;;;;;;4823130;29;20046;-38
2022/11/21 03:10:44;;;;;;;2.75;2.03;;;15.00;1.00;;;;;;4823391;29;20047;-38
2022/11/21 03:13:11;;;;;;;3.83;2.13;;;15.00;1.00;;;;;;4823110;29;20075;-38
2022/11/21 03:15:37;;;;;;;2.88;1.75;;;15.00;1.00;;;;;;4823282;29;20042;-38
2022/11/21 03:18:04;;;;;;;3.45;2.03;;;15.00;1.00;;;;;;4823139;29;20129;-38
2022/11/21 03:20:33;;;;;;;3.55;1.95;;;15.00;1.00;;;;;;4823279;29;20051;-39
2022/11/21 03:23:00;;;;;;;2.90;2.08;;;15.00;1.00;;;;;;4822868;29;20073;-38
2022/11/21 03:25:27;;;;;;;3.08;2.13;;;15.00;1.00;;;;;;4823068;29;20049;-38
2022/11/21 03:27:54;;;;;;;3.40;2.47;;;14.90;1.00;;;;;;4823106;29;20478;-38
2022/11/21 03:30:23;;;;;;;1.85;1.58;;;14.90;1.00;;;;;;4823192;29;20445;-38
2022/11/21 03:32:50;;;;;;;3.20;1.85;;;14.90;1.00;;;;;;4823048;29;20057;-38
2022/11/21 03:35:16;;;;;;;2.63;1.65;;;14.90;1.00;;;;;;4822889;29;20491;-38
2022/11/21 03:37:43;;;;;;;3.47;2.08;;;14.90;1.00;;;;;;4822086;29;20121;-38
2022/11/21 03:40:10;;;;;;;4.50;2.28;;;14.90;1.00;;;;;;4823096;29;20099;-39
2022/11/21 03:42:37;;;;;;;2.67;1.98;;;14.90;1.00;;;;;;4822666;29;20066;-37
2022/11/21 03:45:05;;;;;;;2.80;1.83;;;14.80;1.00;;;;;;4822856;29;20407;-39
2022/11/21 03:47:31;;;;;;;3.85;1.95;;;14.80;1.00;;;;;;4822896;29;20052;-38
2022/11/21 03:49:58;;;;;;;3.53;2.05;;;14.80;1.00;;;;;;4822700;29;20042;-37
2022/11/21 03:52:25;;;;;;;3.35;1.98;;;14.80;1.00;;;;;;4822598;29;20053;-37
2022/11/21 03:54:51;;;;;;;3.28;1.92;;;14.80;1.00;;;;;;4822816;29;20050;-38
2022/11/21 03:57:18;;;;;;;3.10;1.98;;;14.80;1.00;;;;;;4822799;29;20503;-38
2022/11/21 03:59:45;;;;;;;2.40;1.80;;;14.80;1.00;;;;;;4821787;29;20046;-38
2022/11/21 04:02:12;;;;;;;3.45;2.08;;;14.80;1.00;;;;;;4821464;29;20134;-37
2022/11/21 04:04:38;;;;;;;2.17;1.70;;;14.70;1.00;;;;;;4821629;29;20052;-37
2022/11/21 04:07:05;;;;;;;2.60;2.00;;;14.70;1.00;;;;;;4828855;29;20053;-37
2022/11/21 04:09:32;;;;;;;3.17;2.20;;;14.70;1.00;;;;;;4834879;29;20132;-38
2022/11/21 04:11:59;;;;;;;3.47;1.95;;;14.70;1.00;;;;;;4833804;29;20054;-38
2022/11/21 04:14:32;;;;;;;3.42;1.80;;;14.70;1.00;;;;;;4839309;29;20042;-38
2022/11/21 04:16:58;;;;;;;3.25;1.83;;;14.70;1.00;;;;;;4834263;29;20452;-39
2022/11/21 04:19:25;;;;;;;4.05;2.72;;;14.60;1.00;;;;;;4844215;29;20050;-38
2022/11/21 04:21:52;;;;;;;2.97;1.92;;;14.60;1.00;;;;;;4844256;29;20129;-39
2022/11/21 04:24:18;;;;;;;2.60;1.73;;;14.60;1.00;;;;;;4843841;29;20052;-39
2022/11/21 04:26:45;;;;;;;2.70;1.77;;;14.60;1.00;;;;;;4844242;29;20505;-38
2022/11/21 04:29:12;;;;;;;2.35;1.50;;;14.60;1.00;;;;;;4844158;29;20178;-39
2022/11/21 04:31:38;;;;;;;2.83;1.63;;;14.60;1.00;;;;;;4843960;29;20413;-38
2022/11/21 04:34:05;;;;;;;2.47;1.88;;;14.60;1.00;;;;;;4843703;29;20133;-39
2022/11/21 04:36:32;;;;;;;2.00;1.55;;;14.50;1.00;;;;;;4844016;29;20073;-39
2022/11/21 04:38:59;;;;;;;2.40;1.60;;;14.50;1.00;;;;;;4844042;29;20081;-38
2022/11/21 04:41:25;;;;;;;3.60;1.70;;;14.50;1.00;;;;;;4843987;29;20129;-38
2022/11/21 04:43:52;;;;;;;2.35;1.67;;;14.50;1.00;;;;;;4843603;29;20049;-38
2022/11/21 04:46:19;;;;;;;2.67;1.50;;;14.50;1.00;;;;;;4843679;29;20057;-39
2022/11/21 04:48:45;;;;;;;2.55;1.63;;;14.50;1.00;;;;;;4843765;29;20054;-38
2022/11/21 04:51:12;;;;;;;3.88;1.48;;;14.50;1.00;;;;;;4843735;29;20052;-39
2022/11/21 04:53:39;;;;;;;2.78;1.60;;;14.50;1.00;;;;;;4843659;29;20558;-39
2022/11/21 04:56:09;;;;;;;2.60;1.50;;;14.40;1.00;;;;;;4843612;29;20125;-38
2022/11/21 04:58:36;;;;;;;2.30;1.52;;;14.40;1.00;;;;;;4843717;29;20053;-38
2022/11/21 05:01:07;;;;;;;2.22;1.73;;;14.40;1.00;;;;;;4843453;29;20137;-38
2022/11/21 05:03:34;;;;;;;3.00;1.73;;;14.40;1.00;;;;;;4843268;29;20493;-37
2022/11/21 05:06:02;;;;;;;2.50;1.60;;;14.40;1.00;;;;;;4843443;29;20050;-37
2022/11/21 05:08:28;;;;;;;3.22;1.42;;;14.40;1.00;;;;;;4843490;29;20070;-38
2022/11/21 05:13:40;;;;;;;2.58;1.35;;;14.30;1.00;;;;;;4830433;29;20050;-38
2022/11/21 05:16:07;;;;;;;4.28;1.75;;;14.30;1.00;;;;;;4834257;29;20070;-38
2022/11/21 05:18:34;;;;;;;3.05;1.88;;;14.30;1.00;;;;;;4837344;29;20064;-38
2022/11/21 05:21:01;;;;;;;4.05;1.90;;;14.30;1.00;;;;;;4835255;29;20069;-38
2022/11/21 05:23:28;;;;;;;2.55;1.75;;;14.30;1.00;;;;;;4842460;29;20050;-38
2022/11/21 05:25:55;;;;;;;2.70;1.80;;;14.30;1.00;;;;;;4831672;29;20125;-38
2022/11/21 05:28:22;;;;;;;8.45;2.40;;;14.30;1.00;;;;;;4823795;29;20130;-38
2022/11/21 05:30:49;;;;;;;7.20;3.42;;;14.20;1.00;;;;;;4834439;29;20095;-38
2022/11/21 05:33:15;;;;;;;4.90;2.75;;;14.20;1.00;;;;;;4835108;29;20054;-38
2022/11/21 05:35:42;;;;;;;7.55;2.92;;;14.20;1.00;;;;;;4842285;29;20064;-38
2022/11/21 05:38:09;;;;;;;5.00;2.58;;;14.20;1.00;;;;;;4841684;29;20050;-39
2022/11/21 05:40:36;;;;;;;4.50;2.03;;;14.20;1.00;;;;;;4841727;29;20133;-38
2022/11/21 05:45:51;;;;;;;8.90;2.90;;;14.20;1.00;;;;;;4841723;29;20050;-39
2022/11/21 05:48:17;;;;;;;4.07;2.45;;;14.20;1.00;;;;;;4825626;29;20095;-39
2022/11/21 05:50:48;;;;;;;3.30;1.95;;;14.20;1.00;;;;;;4842073;29;20095;-38
2022/11/21 05:53:15;;;;;;;6.45;2.67;;;14.20;1.00;;;;;;4842675;29;20434;-40
2022/11/21 05:55:42;;;;;;;3.63;1.92;;;14.20;1.00;;;;;;4836043;29;20034;-38
2022/11/21 05:58:09;;;;;;;7.05;2.30;;;14.20;1.00;;;;;;4813441;29;20115;-40
2022/11/21 06:00:37;;;;;;;6.50;1.92;;;14.20;1.00;;;;;;4800485;29;20499;-38
2022/11/21 06:05:49;;;;;;;12.15;3.47;;;14.30;1.00;;;;;;4840636;29;20072;-39
2022/11/21 06:08:16;;;;;;;5.25;2.80;;;14.30;1.00;;;;;;4840573;29;20349;-39
2022/11/21 06:10:43;;;;;;;4.97;2.65;;;14.40;1.00;;;;;;4840785;29;20046;-39
2022/11/21 06:13:20;;;;;;;3.75;2.00;;;14.40;1.00;;;;;;4840470;29;20068;-39
2022/11/21 06:16:10;;;;;;;3.53;2.15;;;14.40;1.00;;;;;;4840587;29;20486;-39
2022/11/21 06:18:38;;;;;;;4.25;2.03;;;14.50;1.00;;;;;;4838892;29;20434;-39
2022/11/21 06:21:13;;;;;;;4.00;2.78;;;14.50;1.00;;;;;;4842262;29;20128;-38
2022/11/21 06:23:40;;;;;;;5.65;2.25;;;14.50;1.00;;;;;;4825539;29;20085;-39
2022/11/21 06:26:11;;;;;;;4.35;2.88;;;14.60;1.00;;;;;;4841981;29;20471;-39
2022/11/21 06:28:39;;;;;;;5.90;2.38;;;14.60;1.00;;;;;;4842049;29;20081;-38
2022/11/21 06:31:09;;;;;;;4.68;2.67;;;14.60;1.00;;;;;;4841986;29;20054;-38
2022/11/21 06:33:37;;;;;;;4.30;2.53;;;14.60;1.00;;;;;;4841351;29;20095;-38
2022/11/21 06:36:12;;;;;;;3.38;2.50;;;14.60;1.00;;;;;;4842007;29;20053;-39
2022/11/21 06:38:39;;;;;;;3.97;2.17;;;14.60;1.00;;;;;;4841940;29;20058;-39
2022/11/21 06:41:09;;;;;;;3.90;2.38;;;14.60;1.00;;;;;;4841992;29;20498;-39
2022/11/21 06:43:36;;;;;;;4.45;2.78;;;14.60;1.00;;;;;;4841548;29;20054;-39
2022/11/21 06:46:03;;;;;;;5.60;3.17;;;14.60;1.00;;;;;;4841766;29;20041;-38
2022/11/21 06:48:31;;;;;;;5.25;2.50;;;14.70;1.00;;;;;;4841715;29;20049;-38
2022/11/21 06:51:02;;;;;;;4.75;2.40;;;14.60;1.00;;;;;;4841693;29;20120;-38
2022/11/21 06:53:29;;;;;;;6.57;3.08;;;14.70;1.00;;;;;;4841397;29;20053;-39
2022/11/21 06:55:58;;;;;;;5.85;3.50;;;14.60;1.00;;;;;;4841626;29;20490;-39
2022/11/21 06:58:26;;;;;;;4.82;2.70;;;14.70;1.00;;;;;;4841813;29;20114;-39
2022/11/21 07:00:52;;;;;;;6.07;2.88;;;14.60;1.00;;;;;;4841504;29;20050;-40
2022/11/21 07:03:20;;;;;;;4.65;3.60;;;14.60;1.00;;;;;;4841434;29;20060;-39
2022/11/21 07:05:47;;;;;;;3.78;2.60;;;14.60;1.00;;;;;;4841627;29;20129;-39
2022/11/21 07:08:13;;;;;;;7.15;3.30;;;14.60;1.00;;;;;;4841287;29;20058;-39
2022/11/21 07:10:40;;;;;;;4.32;2.80;;;14.60;1.00;;;;;;4841475;29;20498;-39
2022/11/21 07:13:27;;;;;;;7.90;3.03;;;14.60;1.00;;;;;;4841178;29;20050;-39
2022/11/21 07:15:59;;;;;;;4.68;2.67;;;14.60;1.00;;;;;;4841173;29;20038;-39
2022/11/21 07:18:26;;;;;;;5.85;3.30;;;14.50;1.00;;;;;;4841242;29;20056;-39
2022/11/21 07:21:00;;;;;;;5.13;3.20;;;14.50;1.00;;;;;;4841144;29;20132;-39
2022/11/21 07:23:28;;;;;;;4.80;3.22;;;14.50;1.00;;;;;;4840895;29;20467;-39
2022/11/21 07:25:59;;;;;;;5.07;3.15;;;14.50;1.00;;;;;;4840246;29;20042;-39
2022/11/21 07:28:29;;;;;;;5.30;3.22;;;14.50;1.00;;;;;;4836485;29;20551;-39
2022/11/21 07:30:57;;;;;;;6.57;3.65;;;14.50;1.00;;;;;;4836530;29;20046;-39
2022/11/21 07:33:24;;;;;;;6.60;3.88;;;14.50;1.00;;;;;;4836645;29;20042;-39
2022/11/21 07:35:51;;;;;;;5.57;3.53;;;14.50;1.00;;;;;;4837010;29;20509;-39
2022/11/21 07:38:18;;;;;;;5.38;3.50;;;14.40;1.00;;;;;;4836428;29;20111;-39
2022/11/21 07:40:45;;;;;;;8.38;3.60;;;14.40;1.00;;;;;;4836175;29;20103;-39
2022/11/21 07:43:11;;;;;;;7.07;3.63;;;14.40;1.00;;;;;;4836269;29;20053;-39
2022/11/21 07:45:38;;;;;;;6.35;3.95;;;14.40;1.00;;;;;;4837208;29;20505;-39
2022/11/21 07:48:06;;;;;;;7.20;4.18;;;14.40;1.00;;;;;;4839044;29;20127;-39
2022/11/21 07:50:33;;;;;;;5.95;3.78;;;14.40;1.00;;;;;;4840404;29;20185;-38
2022/11/21 07:53:02;;;;;;;5.65;3.35;;;14.30;1.00;;;;;;4844319;29;20084;-37
2022/11/21 07:55:29;;;;;;;6.32;3.65;;;14.30;1.00;;;;;;4844573;29;20481;-38
2022/11/21 07:58:07;;;;;;;7.30;4.25;;;14.30;1.00;;;;;;4844576;29;20083;-38
2022/11/21 08:00:37;;;;;;;6.93;3.67;;;14.30;1.00;;;;;;4844484;29;20498;-39
2022/11/21 08:03:05;;;;;;;8.23;4.63;;;14.30;1.00;;;;;;4844669;29;20121;-38
2022/11/21 08:05:36;;;;;;;7.88;4.50;;;14.30;1.00;;;;;;4827875;29;20046;-38
2022/11/21 08:08:05;;;;;;;7.03;4.18;;;14.30;1.00;;;;;;4844467;29;20073;-38
2022/11/21 08:10:32;;;;;;;7.25;4.50;;;14.20;1.00;;;;;;4844352;29;20130;-38
2022/11/21 08:12:58;;;;;;;7.03;4.43;;;14.20;1.00;;;;;;4844277;29;20070;-38
2022/11/21 08:15:25;;;;;;;8.02;4.47;;;14.20;1.00;;;;;;4827796;29;20057;-38
2022/11/21 08:17:52;;;;;;;9.05;4.68;;;14.20;1.00;;;;;;4844201;29;20038;-38
2022/11/21 08:20:19;;;;;;;6.80;4.78;;;14.20;1.00;;;;;;4844374;29;20046;-38
2022/11/21 08:22:46;;;;;;;7.75;4.45;;;14.10;1.00;;;;;;4844002;29;20054;-38
2022/11/21 08:25:12;;;;;;;8.30;4.72;;;14.10;1.00;;;;;;4844227;29;20038;-38
2022/11/21 08:27:41;;;;;;;11.05;5.47;;;14.10;1.00;;;;;;4844143;29;20098;-38
2022/11/21 08:30:09;;;;;;;8.23;4.80;;;14.10;1.00;;;;;;4843912;29;20045;-38
2022/11/21 08:32:36;;;;;;;9.13;5.00;;;14.10;1.00;;;;;;4827103;29;20053;-38
2022/11/21 08:35:03;;;;;;;11.80;4.95;;;14.10;1.00;;;;;;4844030;29;20103;-37
2022/11/21 08:37:30;;;;;;;7.85;4.68;;;14.10;1.00;;;;;;4843929;29;20046;-38
2022/11/21 08:39:57;;;;;;;9.32;5.53;;;14.10;1.00;;;;;;4843895;29;20050;-38
2022/11/21 08:42:25;;;;;;;7.72;5.22;;;14.00;1.00;;;;;;4843717;29;20046;-38
2022/11/21 08:44:52;;;;;;;9.15;5.18;;;14.10;1.00;;;;;;4843832;29;20125;-39
2022/11/21 08:47:19;;;;;;;8.40;5.00;;;14.00;1.00;;;;;;4843854;29;20528;-39
2022/11/21 08:49:47;;;;;;;8.13;4.90;;;14.00;1.00;;;;;;4843652;29;20444;-39
2022/11/21 08:52:16;;;;;;;9.02;5.13;;;14.00;1.00;;;;;;4843458;29;20128;-38
2022/11/21 08:54:43;;;;;;;8.75;5.40;;;14.00;1.00;;;;;;4843581;29;20053;-39
2022/11/21 08:57:11;;;;;;;8.80;4.97;;;14.00;1.00;;;;;;4843175;29;20117;-39
2022/11/21 08:59:38;;;;;;;10.50;5.75;;;14.00;1.00;;;;;;4843601;29;20054;-39
2022/11/21 09:02:05;;;;;;;9.18;5.07;;;13.90;1.00;;;;;;4843712;29;20049;-39
2022/11/21 09:04:32;;;;;;;10.57;5.45;;;14.00;1.00;;;;;;4843104;29;20466;-39
2022/11/21 09:06:59;;;;;;;9.15;5.65;;;13.90;1.00;;;;;;4843559;29;20076;-39
2022/11/21 09:09:26;;;;;;;9.13;5.45;;;13.90;1.00;;;;;;4843528;29;20151;-38
2022/11/21 09:11:53;;;;;;;8.57;5.07;;;13.90;1.00;;;;;;4843337;29;20110;-38
2022/11/21 09:19:50;;;;;;;8.70;5.03;;;13.90;1.00;;;;;;4843243;29;20403;-38
2022/11/21 09:22:17;;;;;;;8.80;5.05;;;13.80;1.00;;;;;;4842874;29;20054;-38
2022/11/21 09:24:44;;;;;;;10.23;5.90;;;13.90;1.00;;;;;;4842916;29;20073;-38
2022/11/21 09:27:10;;;;;;;6.95;4.78;;;13.80;1.00;;;;;;4843086;29;20057;-38
2022/11/21 09:29:37;;;;;;;10.30;5.05;;;13.80;1.00;;;;;;4842949;29;20387;-38
2022/11/21 09:32:04;;;;;;;9.32;5.47;;;13.80;1.00;;;;;;4843002;29;20050;-38
2022/11/21 09:34:31;;;;;;;10.20;5.15;;;13.80;1.00;;;;;;4842856;29;20419;-38
2022/11/21 09:36:57;;;;;;;11.10;5.95;;;13.80;1.00;;;;;;4842968;29;20126;-38
2022/11/21 09:39:24;;;;;;;10.48;5.88;;;13.80;1.00;;;;;;4842886;29;20057;-38
2022/11/21 09:42:33;;;;;;;9.13;5.15;;;13.80;1.00;;;;;;4842976;29;20065;-39
2022/11/21 09:45:08;;;;;;;8.75;4.70;;;13.80;1.00;;;;;;4842951;29;20076;-38
2022/11/21 09:47:40;;;;;;;8.95;4.95;;;13.70;1.00;;;;;;4842827;29;20069;-38
2022/11/21 09:50:12;;;;;;;9.18;5.10;;;13.70;1.00;;;;;;4842734;29;20049;-38
2022/11/21 09:52:51;;;;;;;10.02;5.32;;;13.70;1.00;;;;;;4842517;29;20106;-38
2022/11/21 09:55:40;;;;;;;9.10;4.93;;;13.70;1.00;;;;;;4842712;29;20038;-38
2022/11/21 09:58:47;;;;;;;10.95;5.70;;;13.70;1.00;;;;;;4842655;29;20129;-38
2022/11/21 10:01:15;;;;;;;7.15;4.97;;;13.70;1.00;;;;;;4842521;29;20458;-38
2022/11/21 10:03:45;;;;;;;9.45;5.32;;;13.70;1.00;;;;;;4842271;29;20128;-38
2022/11/21 10:06:19;;;;;;;8.82;5.35;;;13.60;1.00;;;;;;4842253;29;20053;-38
2022/11/21 10:08:55;;;;;;;8.98;5.43;;;13.70;1.00;;;;;;4841568;29;20056;-39
2022/11/21 10:14:42;;;;;;;8.25;4.95;;;13.70;1.00;;;;;;4842003;29;20046;-38
2022/11/21 10:17:32;;;;;;;10.75;6.18;;;13.60;1.00;;;;;;4842354;29;20061;-38
2022/11/21 10:20:36;;;;;;;7.88;4.60;;;13.60;1.00;;;;;;4842095;29;20136;-38
2022/11/21 10:23:33;;;;;;;8.98;5.15;;;13.60;1.00;;;;;;4842070;29;20058;-38
2022/11/21 10:26:22;;;;;;;8.13;4.50;;;13.60;1.00;;;;;;4842049;29;20057;-38
2022/11/21 10:29:22;;;;;;;9.15;4.47;;;13.60;1.00;;;;;;4842090;29;20094;-38
2022/11/21 10:31:51;;;;;;;10.63;5.00;;;13.60;1.00;;;;;;4841986;29;20046;-38
2022/11/21 10:34:24;;;;;;;8.65;5.43;;;13.50;1.00;;;;;;4841591;29;20065;-38
2022/11/21 10:36:58;;;;;;;7.65;4.93;;;13.50;1.00;;;;;;4842043;29;20046;-38
2022/11/21 10:39:36;;;;;;;7.80;4.88;;;13.50;1.00;;;;;;4841955;29;20082;-39
2022/11/21 10:42:10;;;;;;;7.78;5.03;;;13.50;1.00;;;;;;4841722;29;20562;-38
2022/11/21 10:47:30;;;;;;;13.68;5.15;;;13.50;1.00;;;;;;4841869;29;20050;-38
2022/11/21 10:50:11;;;;;;;7.88;4.63;;;13.50;1.00;;;;;;4841602;29;20486;-39
2022/11/21 10:52:58;;;;;;;7.47;4.35;;;13.50;1.00;;;;;;4841584;29;20117;-39
2022/11/21 10:55:25;;;;;;;7.38;4.30;;;13.50;1.00;;;;;;4841573;29;20042;-38
2022/11/21 10:58:16;;;;;;;8.63;4.55;;;13.40;1.00;;;;;;4841670;29;20049;-38
2022/11/21 11:00:56;;;;;;;8.85;4.28;;;13.40;1.00;;;;;;4841337;29;20106;-38
2022/11/21 11:03:24;;;;;;;8.77;4.38;;;13.50;1.00;;;;;;4841221;29;20463;-39
2022/11/21 11:05:58;;;;;;;8.10;4.22;;;13.40;1.00;;;;;;4841279;29;20077;-39
2022/11/21 11:08:26;;;;;;;9.23;5.55;;;13.40;1.00;;;;;;4841511;29;20050;-38
2022/11/21 11:11:05;;;;;;;8.52;4.50;;;13.40;1.00;;;;;;4841284;29;20046;-39
2022/11/21 11:13:35;;;;;;;8.35;5.38;;;13.40;1.00;;;;;;4841177;29;20490;-39
2022/11/21 11:16:19;;;;;;;6.85;4.30;;;13.40;1.00;;;;;;4841239;29;20046;-39
2022/11/21 11:18:59;;;;;;;7.53;4.35;;;13.40;1.00;;;;;;4841202;29;20046;-39
2022/11/21 11:21:48;;;;;;;8.88;4.82;;;13.40;1.00;;;;;;4841149;29;20070;-39
2022/11/21 11:24:15;;;;;;;8.20;4.95;;;13.40;1.00;;;;;;4840802;29;20083;-39
2022/11/21 11:26:47;;;;;;;8.90;5.00;;;13.40;1.00;;;;;;4841209;29;20087;-39
2022/11/21 11:29:19;;;;;;;7.85;4.68;;;13.40;1.00;;;;;;4841384;29;20042;-38
2022/11/21 11:31:57;;;;;;;8.35;4.95;;;13.40;1.00;;;;;;4824730;29;20110;-39
2022/11/21 11:34:39;;;;;;;11.15;4.50;;;13.40;1.00;;;;;;4840790;29;20073;-39
2022/11/21 11:37:09;;;;;;;7.55;4.35;;;13.40;1.00;;;;;;4840982;29;20054;-39
2022/11/21 11:39:57;;;;;;;8.82;4.60;;;13.30;1.00;;;;;;4841211;29;20410;-39
2022/11/21 11:49:11;;;;;;;8.52;4.35;;;13.30;1.00;;;;;;4840946;29;20078;-39
2022/11/21 11:51:51;;;;;;;9.37;4.90;;;13.30;1.00;;;;;;4841065;29;20042;-39
2022/11/21 11:54:28;;;;;;;9.30;5.05;;;13.30;1.00;;;;;;4840718;29;20053;-39
2022/11/21 11:56:57;;;;;;;6.65;3.97;;;13.30;1.00;;;;;;4840746;29;20073;-39
2022/11/21 11:59:35;;;;;;;8.43;4.57;;;13.30;1.00;;;;;;4841054;29;20054;-39
2022/11/21 12:02:15;;;;;;;8.82;4.00;;;13.30;1.00;;;;;;4840908;29;20065;-39
2022/11/21 12:04:49;;;;;;;7.97;4.32;;;13.30;1.00;;;;;;4840904;29;20096;-39
2022/11/21 12:07:21;;;;;;;7.15;3.70;;;13.30;1.00;;;;;;4840973;29;20133;-39
2022/11/21 12:10:11;;;;;;;5.28;3.63;;;13.30;1.00;;;;;;4840464;29;20042;-39
2022/11/21 12:12:44;;;;;;;6.78;4.15;;;13.30;1.00;;;;;;4840617;29;20041;-38
2022/11/21 12:18:15;;;;;;;7.80;4.05;;;13.30;1.00;;;;;;4840905;29;20048;-38
2022/11/21 12:21:05;;;;;;;6.97;4.15;;;13.20;1.00;;;;;;4840770;29;20050;-39
2022/11/21 12:23:45;;;;;;;6.47;3.88;;;13.20;1.00;;;;;;4837815;29;20076;-39
2022/11/21 12:26:17;;;;;;;7.75;3.58;;;13.20;1.00;;;;;;4840677;29;20061;-39
2022/11/21 12:29:22;;;;;;;5.07;3.17;;;13.20;1.00;;;;;;4840897;29;20411;-39
2022/11/21 12:32:07;;;;;;;6.60;4.15;;;13.20;1.00;;;;;;4841979;29;20050;-38
2022/11/21 12:34:50;;;;;;;7.72;3.80;;;13.20;1.00;;;;;;4843978;29;20137;-38
2022/11/21 12:37:44;;;;;;;6.80;4.38;;;13.20;1.00;;;;;;4843983;29;20519;-39
2022/11/21 12:40:55;;;;;;;7.15;3.80;;;13.20;1.00;;;;;;4844129;29;20050;-39
2022/11/21 12:43:32;;;;;;;8.15;3.42;;;13.20;1.00;;;;;;4843524;29;20129;-39
2022/11/21 12:46:07;;;;;;;8.50;4.97;;;13.20;1.00;;;;;;4843813;29;20046;-39
2022/11/21 12:55:36;;;;;;;6.45;3.33;;;13.20;1.00;;;;;;4843555;29;20098;-39
2022/11/21 12:58:21;;;;;;;5.78;4.00;;;13.20;1.00;;;;;;4843682;29;20053;-39
2022/11/21 13:01:13;;;;;;;6.43;4.22;;;13.20;1.00;;;;;;4843511;29;20046;-39
2022/11/21 13:03:58;;;;;;;7.13;3.72;;;13.20;1.00;;;;;;4843498;29;20672;-38
2022/11/21 13:06:29;;;;;;;6.30;4.30;;;13.20;1.00;;;;;;4843504;29;20081;-39
2022/11/21 13:09:00;;;;;;;7.05;3.85;;;13.10;1.00;;;;;;4843575;29;20042;-39
2022/11/21 13:12:02;;;;;;;5.68;3.80;;;13.20;1.00;;;;;;4843405;29;20071;-39
2022/11/21 13:14:41;;;;;;;5.05;3.45;;;13.20;1.00;;;;;;4826284;29;20095;-39
2022/11/21 13:17:14;;;;;;;9.05;3.80;;;13.20;1.00;;;;;;4843295;29;20064;-38
2022/11/21 13:19:52;;;;;;;5.53;3.25;;;13.20;1.00;;;;;;4843440;29;20123;-39
2022/11/21 13:22:37;;;;;;;9.70;4.70;;;13.20;1.00;;;;;;4843037;29;20073;-39
2022/11/21 13:25:11;;;;;;;9.05;3.92;;;13.20;1.00;;;;;;4842975;29;20046;-39
2022/11/21 13:27:38;;;;;;;7.22;3.70;;;13.30;1.00;;;;;;4843244;29;20074;-39
2022/11/21 13:30:09;;;;;;;7.05;3.63;;;13.30;1.00;;;;;;4842914;29;20073;-39
2022/11/21 13:32:45;;;;;;;10.70;4.32;;;13.40;1.00;;;;;;4843529;23;20118;-39
2022/11/21 13:35:37;;;;;;;9.93;6.55;;;13.50;1.00;;;;;;4830914;29;20062;-39
2022/11/21 13:38:07;;;;;;;17.75;7.40;;;13.50;1.00;;;;;;4832291;29;20050;-37
2022/11/21 13:40:35;;;;;;;16.80;8.68;;;13.60;1.00;;;;;;4836960;29;20054;-38
2022/11/21 13:43:11;;;;;;;20.40;9.48;;;13.60;1.00;;;;;;4826380;29;20418;-37
2022/11/21 13:45:58;;;;;;;20.08;8.40;;;13.60;1.00;;;;;;4832563;29;20070;-38
2022/11/21 13:48:33;;;;;;;19.15;9.65;;;13.70;1.00;;;;;;4826205;29;20042;-38
2022/11/21 13:51:03;;;;;;;13.93;8.10;;;13.70;1.00;;;;;;4841870;29;20050;-38
2022/11/21 13:53:53;;;;;;;14.15;8.18;;;13.70;1.00;;;;;;4830298;29;20570;-38